createdAt,value
2022-11-14T00:01:11.074Z,80.20
2022-11-14T00:03:38.169Z,87.93
2022-11-14T00:06:07.193Z,68.80
2022-11-14T00:08:34.723Z,83.73
2022-11-14T00:11:02.626Z,67.47
2022-11-14T00:13:29.546Z,87.50
2022-11-14T00:15:56.786Z,78.27
2022-11-14T00:18:24.057Z,72.00
2022-11-14T00:20:53.067Z,79.70
2022-11-14T00:23:21.287Z,97.80
2022-11-14T00:25:49.038Z,83.70
2022-11-14T00:28:16.506Z,85.47
2022-11-14T00:30:48.219Z,68.47
2022-11-14T00:33:20.091Z,76.27
2022-11-14T00:35:55.110Z,81.47
2022-11-14T00:38:23.065Z,82.67
2022-11-14T00:40:50.038Z,69.77
2022-11-14T00:43:16.974Z,78.30
2022-11-14T00:45:46.130Z,75.77
2022-11-14T00:48:13.660Z,75.70
2022-11-14T00:50:40.941Z,86.87
2022-11-14T00:53:08.197Z,79.73
2022-11-14T00:55:35.264Z,91.27
2022-11-14T00:58:02.245Z,94.10
2022-11-14T01:00:29.223Z,85.13
2022-11-14T01:12:47.154Z,75.50
2022-11-14T01:15:14.174Z,94.70
2022-11-14T01:17:41.116Z,85.07
2022-11-14T01:20:08.490Z,89.30
2022-11-14T01:22:35.415Z,90.03
2022-11-14T01:25:02.372Z,94.90
2022-11-14T01:27:31.929Z,95.53
2022-11-14T01:29:59.038Z,95.83
2022-11-14T01:32:27.026Z,91.83
2022-11-14T01:34:53.966Z,96.40
2022-11-14T01:37:20.954Z,100.60
2022-11-14T01:39:47.842Z,100.27
2022-11-14T01:42:15.712Z,104.87
2022-11-14T01:44:48.614Z,103.77
2022-11-14T01:47:24.373Z,107.23
2022-11-14T01:49:56.255Z,109.60
2022-11-14T01:52:35.407Z,102.53
2022-11-14T01:55:08.355Z,98.07
2022-11-14T01:57:41.153Z,101.20
2022-11-14T02:00:11.780Z,98.20
2022-11-14T02:02:39.171Z,109.03
2022-11-14T02:05:13.458Z,106.90
2022-11-14T02:07:41.742Z,109.17
2022-11-14T02:10:16.734Z,99.13
2022-11-14T02:12:44.927Z,99.67
2022-11-14T02:15:13.522Z,103.53
2022-11-14T02:17:41.766Z,106.03
2022-11-14T02:20:11.995Z,90.80
2022-11-14T02:22:41.515Z,85.97
2022-11-14T02:25:10.935Z,94.77
2022-11-14T02:27:40.544Z,100.03
2022-11-14T02:30:13.295Z,99.50
2022-11-14T02:33:08.879Z,100.90
2022-11-14T02:35:26.997Z,104.70
2022-11-14T02:37:54.689Z,93.10
2022-11-14T02:40:21.550Z,96.80
2022-11-14T02:42:48.509Z,95.53
2022-11-14T02:45:15.402Z,91.83
2022-11-14T02:47:42.325Z,94.07
2022-11-14T02:50:10.084Z,83.40
2022-11-14T02:52:36.964Z,97.77
2022-11-14T02:55:05.902Z,90.03
2022-11-14T02:57:32.768Z,83.60
2022-11-14T02:59:59.604Z,89.37
2022-11-14T03:02:26.490Z,85.90
2022-11-14T03:04:53.840Z,98.33
2022-11-14T03:07:20.869Z,97.67
2022-11-14T03:09:47.906Z,93.77
2022-11-14T03:12:19.023Z,91.93
2022-11-14T03:14:45.987Z,85.77
2022-11-14T03:17:13.119Z,90.70
2022-11-14T03:19:40.061Z,91.03
2022-11-14T03:22:07.064Z,83.90
2022-11-14T03:24:33.986Z,90.80
2022-11-14T03:27:00.859Z,88.27
2022-11-14T03:29:27.709Z,86.20
2022-11-14T03:31:54.569Z,90.80
2022-11-14T03:34:21.488Z,83.00
2022-11-14T03:36:48.420Z,89.30
2022-11-14T03:39:15.384Z,92.67
2022-11-14T03:41:42.265Z,97.33
2022-11-14T03:44:09.195Z,106.83
2022-11-14T03:46:36.077Z,89.43
2022-11-14T03:49:03.278Z,110.57
2022-11-14T03:51:30.192Z,96.70
2022-11-14T03:53:57.034Z,99.93
2022-11-14T03:56:24.048Z,96.43
2022-11-14T03:58:50.976Z,91.80
2022-11-14T04:01:18.088Z,94.60
2022-11-14T04:03:45.012Z,95.17
2022-11-14T04:06:11.882Z,91.57
2022-11-14T04:08:41.376Z,92.23
2022-11-14T04:11:08.346Z,98.50
2022-11-14T04:13:35.217Z,99.33
2022-11-14T04:16:02.333Z,91.93
2022-11-14T04:18:29.627Z,93.73
2022-11-14T04:20:56.832Z,80.60
2022-11-14T04:23:23.768Z,93.20
2022-11-14T04:25:50.641Z,94.70
2022-11-14T04:28:17.739Z,107.90
2022-11-14T04:30:45.326Z,97.80
2022-11-14T04:33:12.362Z,88.70
2022-11-14T04:35:39.307Z,97.97
2022-11-14T04:38:06.295Z,98.03
2022-11-14T04:40:33.458Z,95.63
2022-11-14T04:43:00.467Z,91.00
2022-11-14T04:45:27.706Z,95.40
2022-11-14T04:47:54.773Z,99.03
2022-11-14T04:50:21.744Z,98.43
2022-11-14T04:52:53.584Z,113.83
2022-11-14T04:55:20.491Z,106.07
2022-11-14T04:57:47.495Z,97.17
2022-11-14T05:00:15.128Z,110.37
2022-11-14T05:02:42.032Z,108.20
2022-11-14T05:05:09.321Z,98.13
2022-11-14T05:07:36.235Z,109.83
2022-11-14T05:10:04.702Z,105.20
2022-11-14T05:12:31.968Z,113.27
2022-11-14T05:14:58.837Z,98.27
2022-11-14T05:17:26.046Z,102.93
2022-11-14T05:19:52.923Z,94.87
2022-11-14T05:22:19.996Z,95.00
2022-11-14T05:24:46.914Z,109.03
2022-11-14T05:27:13.822Z,111.53
2022-11-14T05:29:40.681Z,101.17
2022-11-14T05:32:09.299Z,105.20
2022-11-14T05:34:39.250Z,91.20
2022-11-14T05:37:06.175Z,103.77
2022-11-14T05:39:33.119Z,104.33
2022-11-14T05:42:00.049Z,101.23
2022-11-14T05:44:26.966Z,101.33
2022-11-14T05:46:53.854Z,87.47
2022-11-14T05:49:22.154Z,97.00
2022-11-14T05:51:49.259Z,105.50
2022-11-14T05:54:16.128Z,88.70
2022-11-14T05:56:42.994Z,78.83
2022-11-14T05:59:09.841Z,96.60
2022-11-14T06:01:36.900Z,97.60
2022-11-14T06:04:07.040Z,95.80
2022-11-14T06:06:33.969Z,99.13
2022-11-14T06:09:00.907Z,101.57
2022-11-14T06:11:27.766Z,96.17
2022-11-14T06:13:54.663Z,97.33
2022-11-14T06:16:21.601Z,103.17
2022-11-14T06:18:48.680Z,90.47
2022-11-14T06:21:19.607Z,99.27
2022-11-14T06:23:47.182Z,99.70
2022-11-14T06:26:30.359Z,100.80
2022-11-14T06:28:58.978Z,86.63
2022-11-14T06:31:26.524Z,98.93
2022-11-14T06:33:53.781Z,110.07
2022-11-14T06:36:20.686Z,96.30
2022-11-14T06:38:47.600Z,77.93
2022-11-14T06:41:21.096Z,103.03
2022-11-14T06:43:51.383Z,110.20
2022-11-14T06:51:15.977Z,102.47
2022-11-14T06:53:43.384Z,100.10
2022-11-14T06:56:16.193Z,90.10
2022-11-14T07:01:20.739Z,101.60
2022-11-14T07:03:48.351Z,101.55
2022-11-14T07:06:25.631Z,102.50
2022-11-14T07:08:54.288Z,90.90
2022-11-14T07:11:26.525Z,98.17
2022-11-14T07:13:56.223Z,84.97
2022-11-14T07:16:31.648Z,99.63
2022-11-14T07:18:59.750Z,94.83
2022-11-14T07:21:29.221Z,93.23
2022-11-14T07:23:56.880Z,99.80
2022-11-14T07:26:24.287Z,114.43
2022-11-14T07:28:54.415Z,99.03
2022-11-14T07:31:23.759Z,88.20
2022-11-14T07:33:50.760Z,98.03
2022-11-14T07:36:18.403Z,99.07
2022-11-14T07:38:45.261Z,97.83
2022-11-14T07:41:15.541Z,88.23
2022-11-14T07:43:43.114Z,89.80
2022-11-14T07:46:17.049Z,85.40
2022-11-14T07:48:45.089Z,88.27
2022-11-14T07:51:18.386Z,102.77
2022-11-14T07:53:45.366Z,100.97
2022-11-14T07:56:13.016Z,92.30
2022-11-14T08:01:11.236Z,90.55
2022-11-14T08:03:44.063Z,77.30
2022-11-14T08:06:15.226Z,91.13
2022-11-14T08:08:42.373Z,82.40
2022-11-14T08:26:02.331Z,84.30
2022-11-14T08:28:29.642Z,88.87
2022-11-14T08:31:04.391Z,87.03
2022-11-14T08:33:32.146Z,83.03
2022-11-14T08:36:03.629Z,79.50
2022-11-14T08:38:32.841Z,76.37
2022-11-14T08:41:04.677Z,69.80
2022-11-14T08:43:31.931Z,86.00
2022-11-14T08:46:04.510Z,77.13
2022-11-14T08:48:33.474Z,85.93
2022-11-14T08:51:07.389Z,73.43
2022-11-14T08:53:35.255Z,81.47
2022-11-14T08:56:02.908Z,69.77
2022-11-14T08:58:32.042Z,71.30
2022-11-14T09:01:06.153Z,72.80
2022-11-14T09:03:34.136Z,82.33
2022-11-14T09:06:03.336Z,78.43
2022-11-14T09:08:30.905Z,84.23
2022-11-14T09:11:05.551Z,72.70
2022-11-14T09:13:34.500Z,78.57
2022-11-14T09:16:01.660Z,73.20
2022-11-14T09:18:30.349Z,68.53
2022-11-14T09:21:07.471Z,68.57
2022-11-14T09:23:35.337Z,73.90
2022-11-14T09:26:07.453Z,74.23
2022-11-14T09:28:35.433Z,65.50
2022-11-14T09:31:11.713Z,77.00
2022-11-14T09:33:38.853Z,67.87
2022-11-14T09:36:09.060Z,66.57
2022-11-14T09:38:38.727Z,64.23
2022-11-14T09:41:12.923Z,65.97
2022-11-14T09:44:19.142Z,65.53
2022-11-14T09:46:54.792Z,69.67
2022-11-14T09:49:33.138Z,63.83
2022-11-14T09:52:49.148Z,72.80
2022-11-14T09:55:37.189Z,60.57
2022-11-14T09:58:15.932Z,74.03
2022-11-14T10:00:58.911Z,59.53
2022-11-14T10:03:46.053Z,67.93
2022-11-14T10:06:35.882Z,60.00
2022-11-14T10:09:56.345Z,59.73
2022-11-14T10:13:07.273Z,60.90
2022-11-14T10:15:53.433Z,57.50
2022-11-14T10:18:36.832Z,54.63
2022-11-14T10:21:38.473Z,75.33
2022-11-14T10:24:11.227Z,55.83
2022-11-14T10:27:19.201Z,56.00
2022-11-14T10:30:03.778Z,58.93
2022-11-14T10:32:48.626Z,63.00
2022-11-14T10:35:48.286Z,63.50
2022-11-14T10:38:35.578Z,58.40
2022-11-14T10:41:06.708Z,52.80
2022-11-14T10:43:52.406Z,54.37
2022-11-14T10:46:36.660Z,53.07
2022-11-14T10:49:19.893Z,62.60
2022-11-14T10:51:52.569Z,57.87
2022-11-14T10:54:32.965Z,55.63
2022-11-14T10:56:59.825Z,64.30
2022-11-14T10:59:28.000Z,58.03
2022-11-14T11:01:58.502Z,54.23
2022-11-14T11:04:32.371Z,56.67
2022-11-14T11:07:44.742Z,69.33
2022-11-14T11:10:41.614Z,54.83
2022-11-14T11:13:15.658Z,58.00
2022-11-14T11:15:43.047Z,56.93
2022-11-14T11:18:28.834Z,50.20
2022-11-14T11:21:23.362Z,69.63
2022-11-14T11:23:57.790Z,53.30
2022-11-14T11:26:28.300Z,53.30
2022-11-14T11:29:10.150Z,50.03
2022-11-14T11:31:55.099Z,62.43
2022-11-14T11:34:28.795Z,51.10
2022-11-14T11:37:26.937Z,54.57
2022-11-14T11:39:59.055Z,62.20
2022-11-14T11:43:31.698Z,50.87
2022-11-14T11:45:29.265Z,47.33
2022-11-14T11:48:10.454Z,51.87
2022-11-14T11:50:37.312Z,53.60
2022-11-14T11:53:39.881Z,50.17
2022-11-14T11:56:16.166Z,47.60
2022-11-14T11:58:49.901Z,48.87
2022-11-14T12:01:17.641Z,46.37
2022-11-14T12:03:50.494Z,44.90
2022-11-14T12:06:25.389Z,48.10
2022-11-14T12:09:18.504Z,46.80
2022-11-14T12:11:54.294Z,61.53
2022-11-14T12:14:39.419Z,48.17
2022-11-14T12:17:31.242Z,48.53
2022-11-14T12:20:38.832Z,39.00
2022-11-14T12:23:24.356Z,47.20
2022-11-14T12:26:16.454Z,45.03
2022-11-14T12:29:48.466Z,39.77
2022-11-14T12:32:31.585Z,46.50
2022-11-14T12:35:00.095Z,53.50
2022-11-14T12:37:36.320Z,49.87
2022-11-14T12:40:08.037Z,40.30
2022-11-14T12:42:35.894Z,38.90
2022-11-14T12:45:02.851Z,38.23
2022-11-14T12:47:29.885Z,34.37
2022-11-14T12:49:59.564Z,37.37
2022-11-14T12:52:44.416Z,39.23
2022-11-14T12:55:26.720Z,37.30
2022-11-14T12:58:27.448Z,43.37
2022-11-14T13:00:59.799Z,34.40
2022-11-14T13:03:41.397Z,45.07
2022-11-14T13:06:19.845Z,35.53
2022-11-14T13:09:04.629Z,30.90
2022-11-14T13:12:04.169Z,33.47
2022-11-14T13:14:51.638Z,33.80
2022-11-14T13:17:43.874Z,30.10
2022-11-14T13:20:47.954Z,30.53
2022-11-14T13:23:29.531Z,35.97
2022-11-14T13:26:12.020Z,32.73
2022-11-14T13:28:38.929Z,36.47
2022-11-14T13:31:15.815Z,35.83
2022-11-14T13:33:59.869Z,36.47
2022-11-14T13:36:42.964Z,31.90
2022-11-14T13:39:38.288Z,34.93
2022-11-14T13:42:55.202Z,37.93
2022-11-14T13:46:02.070Z,31.07
2022-11-14T13:48:55.217Z,30.70
2022-11-14T13:54:18.066Z,31.83
2022-11-14T13:57:16.124Z,26.50
2022-11-14T14:00:15.470Z,29.97
2022-11-14T14:03:38.608Z,37.20
2022-11-14T14:06:42.889Z,31.77
2022-11-14T14:09:32.593Z,30.83
2022-11-14T14:12:39.124Z,33.60
2022-11-14T14:15:35.495Z,30.53
2022-11-14T14:18:48.118Z,28.67
2022-11-14T14:21:41.625Z,33.10
2022-11-14T14:24:58.054Z,30.87
2022-11-14T14:27:37.137Z,39.53
2022-11-14T14:30:16.876Z,32.17
2022-11-14T14:32:43.894Z,32.00
2022-11-14T14:35:37.122Z,30.87
2022-11-14T14:38:13.347Z,40.63
2022-11-14T14:40:42.976Z,31.43
2022-11-14T14:43:25.332Z,29.27
2022-11-14T14:45:54.269Z,34.37
2022-11-14T14:48:29.012Z,34.70
2022-11-14T14:50:58.568Z,35.63
2022-11-14T14:53:34.929Z,30.60
2022-11-14T14:56:17.029Z,32.40
2022-11-14T14:58:43.958Z,32.30
2022-11-14T15:01:16.562Z,36.43
2022-11-14T15:03:48.914Z,33.60
2022-11-14T15:06:48.701Z,32.53
2022-11-14T15:09:29.683Z,31.97
2022-11-14T15:11:59.993Z,33.13
2022-11-14T15:14:35.557Z,33.30
2022-11-14T15:17:04.372Z,37.53
2022-11-14T15:19:41.157Z,40.23
2022-11-14T15:22:23.732Z,31.70
2022-11-14T15:25:12.225Z,38.30
2022-11-14T15:27:48.914Z,38.20
2022-11-14T15:30:32.062Z,33.07
2022-11-14T15:33:02.004Z,34.00
2022-11-14T15:35:39.768Z,38.90
2022-11-14T15:41:25.173Z,43.43
2022-11-14T15:43:55.168Z,31.87
2022-11-14T15:46:34.105Z,35.93
2022-11-14T15:49:26.071Z,37.70
2022-11-14T15:51:58.459Z,32.30
2022-11-14T15:54:31.924Z,33.10
2022-11-14T15:57:13.756Z,36.00
2022-11-14T15:59:40.682Z,33.30
2022-11-14T16:02:29.859Z,40.10
2022-11-14T16:04:58.930Z,39.87
2022-11-14T16:07:26.081Z,39.23
2022-11-14T16:09:53.184Z,45.17
2022-11-14T16:12:20.093Z,44.00
2022-11-14T16:14:47.214Z,41.57
2022-11-14T16:17:16.345Z,38.17
2022-11-14T16:19:44.012Z,45.10
2022-11-14T16:22:16.358Z,41.40
2022-11-14T16:24:43.303Z,38.43
2022-11-14T16:27:10.476Z,41.40
2022-11-14T16:29:37.322Z,45.53
2022-11-14T16:32:04.382Z,42.27
2022-11-14T16:34:31.628Z,47.73
2022-11-14T16:37:01.397Z,42.90
2022-11-14T16:39:29.046Z,67.90
2022-11-14T16:42:02.641Z,44.30
2022-11-14T16:44:30.038Z,43.47
2022-11-14T16:46:57.077Z,48.67
2022-11-14T16:49:24.650Z,43.33
2022-11-14T16:51:55.810Z,43.80
2022-11-14T16:54:23.060Z,42.90
2022-11-14T16:56:50.071Z,37.37
2022-11-14T16:59:17.072Z,41.27
2022-11-14T17:01:44.418Z,53.53
2022-11-14T17:04:11.592Z,45.37
2022-11-14T17:06:38.575Z,51.90
2022-11-14T17:09:05.608Z,49.90
2022-11-14T17:11:32.558Z,48.53
2022-11-14T17:13:59.517Z,56.80
2022-11-14T17:16:26.483Z,50.90
2022-11-14T17:18:55.105Z,45.00
2022-11-14T17:21:23.273Z,43.00
2022-11-14T17:24:00.417Z,41.50
2022-11-14T17:26:28.509Z,43.73
2022-11-14T17:28:56.201Z,52.03
2022-11-14T17:31:23.382Z,42.60
2022-11-14T17:33:58.280Z,39.10
2022-11-14T17:36:28.809Z,54.03
2022-11-14T17:38:59.239Z,41.77
2022-11-14T17:41:26.465Z,39.60
2022-11-14T17:43:56.791Z,45.53
2022-11-14T17:46:23.856Z,38.73
2022-11-14T17:48:51.187Z,49.20
2022-11-14T17:51:18.605Z,50.47
2022-11-14T17:53:45.789Z,42.10
2022-11-14T17:56:25.283Z,45.10
2022-11-14T17:58:53.598Z,40.30
2022-11-14T18:01:24.525Z,40.47
2022-11-14T18:03:51.607Z,38.97
2022-11-14T18:06:20.821Z,40.83
2022-11-14T18:08:48.608Z,43.77
2022-11-14T18:11:17.660Z,39.33
2022-11-14T18:13:44.937Z,51.83
2022-11-14T18:16:18.217Z,62.93
2022-11-14T18:18:45.269Z,46.83
2022-11-14T18:21:19.050Z,39.97
2022-11-14T18:23:56.081Z,40.00
2022-11-14T18:26:28.678Z,37.10
2022-11-14T18:29:03.614Z,42.93
2022-11-14T18:31:31.133Z,37.47
2022-11-14T18:33:58.826Z,39.53
2022-11-14T18:36:26.092Z,40.87
2022-11-14T18:38:53.635Z,39.23
2022-11-14T18:41:22.310Z,40.23
2022-11-14T18:43:50.019Z,38.60
2022-11-14T18:46:21.663Z,43.93
2022-11-14T18:48:53.527Z,37.07
2022-11-14T18:51:25.002Z,42.50
2022-11-14T18:53:52.492Z,35.80
2022-11-14T18:56:21.550Z,35.03
2022-11-14T18:58:54.385Z,35.80
2022-11-14T19:01:29.635Z,36.13
2022-11-14T19:04:03.909Z,38.20
2022-11-14T19:06:33.329Z,37.07
2022-11-14T19:09:08.116Z,36.37
2022-11-14T19:11:56.869Z,42.53
2022-11-14T19:14:24.090Z,37.50
2022-11-14T19:16:51.004Z,36.90
2022-11-14T19:19:18.057Z,42.23
2022-11-14T19:21:48.694Z,39.10
2022-11-14T19:24:15.707Z,39.90
2022-11-14T19:26:42.877Z,36.33
2022-11-14T19:29:13.314Z,41.43
2022-11-14T19:31:41.797Z,38.50
2022-11-14T19:34:10.251Z,41.73
2022-11-14T19:36:58.853Z,40.33
2022-11-14T19:39:25.529Z,41.10
2022-11-14T19:41:52.757Z,39.80
2022-11-14T19:44:19.869Z,40.67
2022-11-14T19:46:48.085Z,44.87
2022-11-14T19:49:15.594Z,37.63
2022-11-14T19:51:42.924Z,43.80
2022-11-14T19:54:11.277Z,39.27
2022-11-14T19:56:38.638Z,39.73
2022-11-14T19:59:11.084Z,43.43
2022-11-14T20:01:42.377Z,42.10
2022-11-14T20:04:13.370Z,39.87
2022-11-14T20:06:41.678Z,64.17
2022-11-14T20:09:11.095Z,44.10
2022-11-14T20:11:38.670Z,39.10
2022-11-14T20:14:06.715Z,39.53
2022-11-14T20:16:36.792Z,48.83
2022-11-14T20:19:04.972Z,42.10
2022-11-14T20:21:34.788Z,38.77
2022-11-14T20:24:02.252Z,43.07
2022-11-14T20:26:29.302Z,47.97
2022-11-14T20:28:56.466Z,42.60
2022-11-14T20:31:27.441Z,38.57
2022-11-14T20:33:55.270Z,38.10
2022-11-14T20:36:35.291Z,43.70
2022-11-14T20:39:11.054Z,45.33
2022-11-14T20:41:37.997Z,43.77
2022-11-14T20:44:05.051Z,40.90
2022-11-14T20:46:32.078Z,41.03
2022-11-14T20:48:59.054Z,42.90
2022-11-14T20:51:28.058Z,50.03
2022-11-14T20:53:55.965Z,44.57
2022-11-14T20:56:23.184Z,42.17
2022-11-14T20:58:52.142Z,46.60
2022-11-14T21:01:20.174Z,45.17
2022-11-14T21:03:48.501Z,46.37
2022-11-14T21:06:16.712Z,37.87
2022-11-14T21:08:43.914Z,41.87
2022-11-14T21:11:18.136Z,44.20
2022-11-14T21:13:57.563Z,44.87
2022-11-14T21:16:36.832Z,44.53
2022-11-14T21:19:05.261Z,42.57
2022-11-14T21:21:36.675Z,42.13
2022-11-14T21:24:04.174Z,44.40
2022-11-14T21:26:38.341Z,46.80
2022-11-14T21:29:13.650Z,39.77
2022-11-14T21:31:44.615Z,47.17
2022-11-14T21:34:14.510Z,49.77
2022-11-14T21:36:45.842Z,41.90
2022-11-14T21:39:15.849Z,47.10
2022-11-14T21:41:44.446Z,42.17
2022-11-14T21:44:14.599Z,54.90
2022-11-14T21:46:41.734Z,47.23
2022-11-14T21:49:09.543Z,48.47
2022-11-14T21:51:36.416Z,43.83
2022-11-14T21:54:03.564Z,50.03
2022-11-14T21:56:33.032Z,48.00
2022-11-14T21:59:15.121Z,49.47
2022-11-14T22:02:07.207Z,46.20
2022-11-14T22:04:35.389Z,47.03
2022-11-14T22:07:05.269Z,46.53
2022-11-14T22:09:32.768Z,45.37
2022-11-14T22:12:00.020Z,48.73
2022-11-14T22:14:27.438Z,49.97
2022-11-14T22:16:54.345Z,45.73
2022-11-14T22:19:21.596Z,44.93
2022-11-14T22:21:48.609Z,60.20
2022-11-14T22:24:15.441Z,44.63
2022-11-14T22:26:42.331Z,54.80
2022-11-14T22:29:09.691Z,52.37
2022-11-14T22:31:38.071Z,51.40
2022-11-14T22:34:05.303Z,52.90
2022-11-14T22:36:32.980Z,48.33
2022-11-14T22:39:00.583Z,49.93
2022-11-14T22:41:33.438Z,51.10
2022-11-14T22:44:02.397Z,51.57
2022-11-14T22:46:29.781Z,47.63
2022-11-14T22:48:58.111Z,49.20
2022-11-14T22:51:26.936Z,46.80
2022-11-14T22:53:57.107Z,45.60
2022-11-14T22:56:28.361Z,44.30
2022-11-14T22:58:56.172Z,49.50
2022-11-14T23:01:29.672Z,44.90
2022-11-14T23:04:03.861Z,49.13
2022-11-14T23:06:33.536Z,49.23
2022-11-14T23:09:02.248Z,51.00
2022-11-14T23:11:31.438Z,52.00
2022-11-14T23:14:00.219Z,52.90
2022-11-14T23:16:33.238Z,49.60
2022-11-14T23:19:03.559Z,47.80
2022-11-14T23:21:37.409Z,48.10
2022-11-14T23:24:10.662Z,44.70
2022-11-14T23:26:37.761Z,59.53
2022-11-14T23:29:04.884Z,49.63
2022-11-14T23:31:31.754Z,53.50
2022-11-14T23:33:58.679Z,53.60
2022-11-14T23:36:26.028Z,44.03
2022-11-14T23:38:53.759Z,54.03
2022-11-14T23:41:25.354Z,50.67
2022-11-14T23:43:52.293Z,51.73
2022-11-14T23:46:19.170Z,51.57
2022-11-14T23:48:46.039Z,52.10
2022-11-14T23:51:13.644Z,50.17
2022-11-14T23:53:41.243Z,51.50
2022-11-14T23:56:13.189Z,44.63
2022-11-14T23:58:40.444Z,49.83
